Portada
METAR-TAF:

METAR-TAF

Aeroports :

Pohnpei, Micronèsia

latitud: 06-59N, longitud: 158-12E, altitud: 2 m

METAR: manca

Hora: 09:41 (22:41 UTC)

Pronòstic

L'informe es va fer fa 41 hores i 13 minuts, a les 05:28 UTC
Pronòstic vàlid del 30 a les 06 UTC al 01 a les 06 UTC
Vent 11 kt del Sud/Sud-Oest
Visibilitat: 10 km
Cel ennuvolat a una alçada de 2000 ft
Cel ennuvolat a una alçada de 12000 ft
xàfecs de pluja
A partir de les 30 a les 0800 UTC
Vent 6 kt amb direcció variable
Visibilitat: 10 km
Núvols disperses a una alçada de 1500 ft
Cel ennuvolat a una alçada de 5000 ft
xàfecs en les proximitats

TAF: PTPN 300528Z 3006/0106 21011KT P6SM -SHRA BKN020 BKN120 FM300800 VRB06KT P6SM VCSH SCT015 BKN050

Observacions i pronòstics meteorològics de més de 4000 aeroports (METAR i TAF).

Les estacions disponibles són els punts grocs i vermells al mapa.

Posi el ratolí al punt desitjat per veure el nom de l'estació.

Feu clic per veure les observacions i els pronòstics meteorològics.

Per canviar el mapa: feu clic els botons verds amb una creu de color negre per apropar; al botó verd amb un guió per allunyar la imatge; o en les fletxes verdes per a mapes adjacents.


METAR-TAF: